METAR Data

Data at: 2219 UTC 30 Jun 2022

K15M 302215Z AUTO VRB04KT 8SM FEW050 32/20 A3006 RMK AO2 T03190203 $
K15M 302155Z AUTO 16005KT 8SM FEW050 33/20 A3006 RMK AO2 T03290197 $
K15M 302135Z AUTO VRB06KT 8SM CLR 32/20 A3007 RMK AO2 T03190196 $
K15M 302115Z AUTO VRB05KT 8SM FEW055 SCT080 33/20 A3006 RMK AO2 T03310197 $
K15M 302055Z AUTO 15007KT 9SM SCT055 BKN080 33/20 A3007 RMK AO2 T03300198 $
K15M 302035Z AUTO VRB04KT 8SM FEW085 33/20 A3007 RMK AO2 T03280195 $
K15M 302015Z AUTO 14009KT 9SM FEW046 BKN130 33/20 A3008 RMK AO2 T03260201 $
K15M 301955Z AUTO 12008KT 9SM SCT046 SCT055 SCT090 BKN110 OVC130 33/20 A3009 RMK AO2 T03270205 $
K15M 301935Z AUTO 17006KT 8SM FEW047 SCT055 BKN070 BKN090 BKN130 31/20 A3010 RMK AO2 T03140205 $
K15M 301915Z AUTO 17008KT 9SM FEW047 SCT070 33/20 A3011 RMK AO2 T03330201 $
K15M 301855Z AUTO 13007KT 9SM SCT047 32/20 A3012 RMK AO2 T03240204 $
K15M 301835Z AUTO 13006KT 9SM CLR 32/20 A3012 RMK AO2 T03200199 $
K15M 301815Z AUTO 12006KT 9SM FEW046 32/19 A3013 RMK AO2 T03180194 $
K15M 301755Z AUTO 12005KT 9SM FEW042 31/20 A3014 RMK AO2 T03150197 $
K15M 301735Z AUTO 12009KT 9SM SCT040 32/20 A3014 RMK AO2 T03170199 $
K15M 301715Z AUTO 16005KT 9SM SCT039 30/21 A3015 RMK AO2 T03050209 $
K15M 301655Z AUTO 20005KT 8SM BKN038 30/21 A3016 RMK AO2 T02970210 $
K15M 301635Z AUTO 13003KT 9SM SCT038 30/20 A3017 RMK AO2 T02950203 $
K15M 301615Z AUTO VRB04KT 10SM FEW038 30/20 A3017 RMK AO2 T02990202 $
K15M 301555Z AUTO 17006KT 10SM CLR 30/20 A3017 RMK AO2 T02970197 $
K15M 301535Z AUTO VRB06KT 10SM CLR 29/20 A3018 RMK AO2 T02910195 $
K15M 301515Z AUTO 19005KT 10SM CLR 29/20 A3018 RMK AO2 T02890196 $
K15M 301455Z AUTO VRB04KT 10SM CLR 29/20 A3019 RMK AO2 T02850204 $
K15M 301435Z AUTO 16005KT 10SM CLR 28/20 A3019 RMK AO2 T02760202 $
K15M 301415Z AUTO 00000KT 10SM CLR 27/20 A3019 RMK AO2 T02710205 $
K15M 301355Z AUTO VRB03KT 10SM CLR 26/21 A3020 RMK AO2 T02640210 $
K15M 301335Z AUTO VRB03KT 10SM CLR 26/21 A3020 RMK AO2 T02580213 $
K15M 301315Z AUTO 16006KT 10SM CLR 25/21 A3020 RMK AO2 T02500214 $
K15M 301255Z AUTO 17006KT 10SM CLR 24/21 A3021 RMK AO2 T02430214 $
K15M 301235Z AUTO 17005KT 10SM CLR 24/21 A3020 RMK AO2 T02400214 $
K15M 301215Z AUTO 13003KT 10SM CLR 23/21 A3021 RMK AO2 T02330214 $
K15M 301155Z AUTO 00000KT 10SM CLR 22/21 A3020 RMK AO2 T02230213 $
K15M 301135Z AUTO 00000KT 10SM FEW011 21/21 A3020 RMK AO2 T02130210 $
K15M 301115Z AUTO 00000KT 10SM FEW011 21/21 A3020 RMK AO2 T02120208 $
K15M 301055Z AUTO 00000KT 9SM CLR 21/21 A3019 RMK AO2 T02080207 $
K15M 301035Z AUTO 00000KT 9SM CLR 20/20 A3019 RMK AO2 T02050204 $
K15M 301015Z AUTO 00000KT 10SM CLR 20/20 A3019 RMK AO2 T02040200 $
K15M 300955Z AUTO 00000KT 10SM CLR 21/21 A3018 RMK AO2 T02090206 $
K15M 300935Z AUTO 00000KT 10SM CLR 21/21 A3018 RMK AO2 T02130211 $
K15M 300915Z AUTO 00000KT 10SM CLR 21/21 A3017 RMK AO2 T02070205 $
K15M 300855Z AUTO 00000KT 10SM CLR 21/20 A3017 RMK AO2 T02080204 $
K15M 300835Z AUTO 00000KT 10SM CLR 21/21 A3016 RMK AO2 T02110209 $
K15M 300815Z AUTO 00000KT 10SM CLR 21/21 A3015 RMK AO2 T02140208 $
K15M 300755Z AUTO 00000KT 10SM CLR 22/21 A3016 RMK AO2 T02200213 $
K15M 300735Z AUTO 00000KT 10SM CLR 22/21 A3017 RMK AO2 T02220212 $
K15M 300715Z AUTO 00000KT 10SM CLR 22/21 A3018 RMK AO2 T02240213 $
K15M 300655Z AUTO 00000KT 10SM CLR 22/21 A3018 RMK AO2 T02210212 $
K15M 300635Z AUTO 00000KT 10SM CLR 23/21 A3018 RMK AO2 T02300214 $
K15M 300615Z AUTO 00000KT 10SM CLR 23/21 A3018 RMK AO2 T02290213 $
K15M 300555Z AUTO 14003KT 10SM CLR 23/21 A3018 RMK AO2 T02330213 $
K15M 300535Z AUTO 00000KT 10SM CLR 24/21 A3018 RMK AO2 T02360211 $
K15M 300515Z AUTO 00000KT 10SM FEW090 24/21 A3018 RMK AO2 T02380211 $
K15M 300455Z AUTO 00000KT 10SM SCT070 BKN090 24/21 A3019 RMK AO2 T02420211 $
K15M 300435Z AUTO 00000KT 10SM FEW065 BKN085 24/21 A3018 RMK AO2 T02440212 $
K15M 300415Z AUTO 00000KT 10SM SCT085 24/21 A3018 RMK AO2 T02440211 $
K15M 300355Z AUTO 00000KT 10SM CLR 25/21 A3018 RMK AO2 T02460211 $
K15M 300335Z AUTO 21003KT 10SM CLR 25/21 A3018 RMK AO2 T02490210 $
K15M 300315Z AUTO 00000KT 10SM FEW100 25/21 A3018 RMK AO2 T02540211 $
K15M 300255Z AUTO 17010KT 10SM CLR 26/21 A3019 RMK AO2 T02590210 $
K15M 300235Z AUTO 18010KT 10SM SCT060 27/21 A3019 RMK AO2 T02660211 $
K15M 300215Z AUTO 19008G16KT 10SM BKN060 OVC100 28/21 A3018 RMK AO2 LTG DSNT S T02760209 $
K15M 300155Z AUTO 00000KT 10SM SCT100 28/21 A3016 RMK AO2 T02760206 $
K15M 300135Z AUTO 00000KT 10SM CLR 28/20 A3016 RMK AO2 LTG DSNT SE - SW T02770203 $
K15M 300115Z AUTO 00000KT 10SM CLR 28/20 A3015 RMK AO2 LTG DSNT SE T02830202 $
K15M 300055Z AUTO 00000KT 9SM CLR 29/20 A3015 RMK AO2 LTG DSNT SE AND S T02910199 $
K15M 300035Z AUTO 00000KT 10SM CLR 30/20 A3014 RMK AO2 T02990197 $
K15M 300015Z AUTO 15004KT 9SM CLR 31/19 A3014 RMK AO2 T03150188 $
K15M 292355Z AUTO VRB03KT 10SM CLR 32/19 A3013 RMK AO2 T03190187 $
K15M 292335Z AUTO 00000KT 7SM CLR 31/18 A3013 RMK AO2 T03140184 $
K15M 292315Z AUTO 00000KT 9SM CLR 32/17 A3013 RMK AO2 T03220170 $
K15M 292255Z AUTO VRB04KT 9SM CLR 33/17 A3013 RMK AO2 T03250171 $
K15M 292235Z AUTO 16005KT 10SM CLR 33/17 A3013 RMK AO2 T03290172 $
K15M 292215Z AUTO 11003KT 9SM FEW070 32/17 A3013 RMK AO2 T03250168 $
K15M 292155Z AUTO 08007KT 9SM SCT070 34/17 A3013 RMK AO2 T03360167 $
K15M 292135Z AUTO 00000KT 9SM CLR 33/16 A3013 RMK AO2 T03320162 $
K15M 292115Z AUTO VRB03KT 10SM FEW080 34/16 A3014 RMK AO2 T03360156 $
K15M 292055Z AUTO 15004KT 10SM BKN070 33/17 A3014 RMK AO2 T03320173 $
K15M 292035Z AUTO 08005KT 9SM BKN065 33/16 A3014 RMK AO2 T03270165 $
K15M 292015Z AUTO 00000KT 10SM SCT070 32/17 A3015 RMK AO2 T03240167 $
K15M 291955Z AUTO 04005KT 10SM BKN065 33/17 A3015 RMK AO2 T03260170 $
K15M 291935Z AUTO 00000KT 10SM SCT060 32/17 A3016 RMK AO2 T03250168 $
K15M 291915Z AUTO 11003KT 10SM BKN060 33/17 A3017 RMK AO2 T03260170 $
K15M 291855Z AUTO VRB03KT 10SM SCT065 32/17 A3017 RMK AO2 T03150168 $
K15M 291835Z AUTO VRB04KT 10SM BKN060 31/17 A3018 RMK AO2 T03070169 $
K15M 291815Z AUTO 04007KT 360V070 9SM BKN060 31/17 A3019 RMK AO2 T03090170 $
K15M 291755Z AUTO 00000KT 9SM SCT060 31/17 A3020 RMK AO2 T03140170 $
K15M 291735Z AUTO VRB03KT 10SM CLR 32/16 A3020 RMK AO2 T03200155 $
K15M 291715Z AUTO VRB06KT 10SM CLR 31/16 A3021 RMK AO2 T03110162 $
K15M 291655Z AUTO 07005KT 10SM CLR 31/17 A3021 RMK AO2 T03090173 $
K15M 291635Z AUTO 06006KT 10SM FEW042 30/18 A3022 RMK AO2 T03010175 $
K15M 291615Z AUTO 00000KT 10SM CLR 29/20 A3022 RMK AO2 T02910195 $
K15M 291555Z AUTO VRB03KT 9SM CLR 29/20 A3022 RMK AO2 T02850196 $
K15M 291535Z AUTO 00000KT 10SM CLR 28/20 A3023 RMK AO2 T02810200 $
K15M 291515Z AUTO 00000KT 10SM CLR 27/20 A3023 RMK AO2 T02750202 $
K15M 291455Z AUTO 07003KT 10SM CLR 27/20 A3022 RMK AO2 T02690200 $
K15M 291435Z AUTO 15004KT 10SM CLR 26/20 A3023 RMK AO2 T02640197 $
K15M 291415Z AUTO 12004KT 10SM CLR 26/20 A3022 RMK AO2 T02600195 $
K15M 291355Z AUTO 09004KT 10SM CLR 25/19 A3022 RMK AO2 T02500189 $
K15M 291335Z AUTO 11003KT 10SM CLR 24/18 A3022 RMK AO2 T02420185 $
K15M 291315Z AUTO 12005KT 10SM CLR 23/18 A3021 RMK AO2 T02340177 $
K15M 291255Z AUTO 09003KT 10SM CLR 23/17 A3021 RMK AO2 T02270168 $
K15M 291235Z AUTO 11004KT 10SM CLR 22/16 A3021 RMK AO2 T02180158 $
K15M 291215Z AUTO 09003KT 10SM CLR 21/15 A3020 RMK AO2 T02090152 $
K15M 291155Z AUTO 00000KT 10SM CLR 20/15 A3019 RMK AO2 T02010150 $
K15M 291135Z AUTO 00000KT 10SM CLR 19/15 A3018 RMK AO2 T01930148 $
K15M 291115Z AUTO 00000KT 10SM CLR 19/15 A3018 RMK AO2 T01890145 $
K15M 291055Z AUTO 00000KT 10SM CLR 19/14 A3018 RMK AO2 T01850143 $
K15M 291035Z AUTO 00000KT 10SM CLR 19/14 A3017 RMK AO2 T01860143 $
K15M 291015Z AUTO 00000KT 10SM CLR 19/14 A3017 RMK AO2 T01880142 $
K15M 290955Z AUTO 00000KT 10SM CLR 19/14 A3016 RMK AO2 T01860141 $
K15M 290935Z AUTO 00000KT 10SM CLR 19/14 A3016 RMK AO2 T01880139 $
K15M 290915Z AUTO 00000KT 10SM CLR 19/14 A3015 RMK AO2 T01940135 $
K15M 290855Z AUTO 00000KT 10SM CLR 19/14 A3015 RMK AO2 T01910136 $
K15M 290835Z AUTO 00000KT 10SM CLR 19/13 A3015 RMK AO2 T01950134 $
K15M 290815Z AUTO 00000KT 10SM CLR 19/13 A3015 RMK AO2 T01920134 $
K15M 290755Z AUTO 00000KT 10SM CLR 18/14 A3015 RMK AO2 T01820140 $
K15M 290735Z AUTO 00000KT 10SM CLR 18/14 A3016 RMK AO2 T01850141 $
K15M 290715Z AUTO 00000KT 10SM CLR 19/13 A3016 RMK AO2 T01910135 $
K15M 290655Z AUTO 00000KT 10SM CLR 19/13 A3016 RMK AO2 T01940134 $
K15M 290635Z AUTO 00000KT 10SM CLR 19/14 A3017 RMK AO2 T01940136 $
K15M 290615Z AUTO 00000KT 10SM CLR 20/13 A3017 RMK AO2 T01990133 $
K15M 290535Z AUTO 03004KT 10SM CLR 20/13 A3018 RMK AO2 T02040133 $
K15M 290515Z AUTO VRB03KT 10SM CLR 21/13 A3017 RMK AO2 T02090133 $
K15M 290455Z AUTO 01004KT 10SM CLR 21/13 A3018 RMK AO2 T02140133 $
K15M 290435Z AUTO 00000KT 10SM CLR 22/13 A3017 RMK AO2 T02160133 $
K15M 290415Z AUTO 00000KT 10SM CLR 22/13 A3018 RMK AO2 T02180134 $
K15M 290355Z AUTO 36003KT 10SM CLR 22/14 A3018 RMK AO2 T02240135 $
K15M 290335Z AUTO 01005KT 10SM CLR 23/14 A3017 RMK AO2 T02290136 $
K15M 290315Z AUTO 36005KT 10SM CLR 23/14 A3016 RMK AO2 T02300137 $
K15M 290255Z AUTO VRB03KT 10SM CLR 23/14 A3015 RMK AO2 T02310139 $
K15M 290235Z AUTO 36005KT 10SM CLR 24/14 A3014 RMK AO2 T02360139 $
K15M 290215Z AUTO 36003KT 10SM CLR 24/14 A3014 RMK AO2 T02390141 $
K15M 290155Z AUTO VRB03KT 10SM CLR 24/14 A3013 RMK AO2 T02390139 $
K15M 290135Z AUTO 00000KT 10SM CLR 26/13 A3013 RMK AO2 T02560125 $
K15M 290115Z AUTO 01004KT 10SM CLR 27/12 A3012 RMK AO2 T02670116 $
K15M 290055Z AUTO 36004KT 9SM CLR 28/11 A3013 RMK AO2 T02750111 $
K15M 290035Z AUTO 01003KT 9SM CLR 28/11 A3013 RMK AO2 T02810107 $
K15M 290015Z AUTO 02004KT 10SM CLR 29/10 A3012 RMK AO2 T02860102 $
K15M 282355Z AUTO 02007KT 10SM CLR 29/10 A3011 RMK AO2 T02910097 $
K15M 282335Z AUTO 02007KT 10SM CLR 30/10 A3011 RMK AO2 T02950095 $
K15M 282315Z AUTO 02006KT 9SM CLR 30/10 A3011 RMK AO2 T02990104 $
K15M 282255Z AUTO VRB04KT 9SM CLR 30/11 A3010 RMK AO2 T03030110 $
K15M 282235Z AUTO 02008KT 9SM CLR 31/11 A3011 RMK AO2 T03100109 $
K15M 282215Z AUTO VRB03KT 9SM CLR 31/11 A3010 RMK AO2 T03100111 $
K15M 282155Z AUTO 01006KT 8SM CLR 31/12 A3011 RMK AO2 T03120116 $
K15M 282135Z AUTO 06009KT 8SM CLR 31/12 A3011 RMK AO2 T03110120 $
K15M 282115Z AUTO VRB03KT 9SM CLR 31/13 A3011 RMK AO2 T03120125 $
K15M 282055Z AUTO 03007KT 9SM CLR 32/13 A3012 RMK AO2 T03160127 $
K15M 282035Z AUTO VRB04KT 10SM CLR 31/13 A3012 RMK AO2 T03150131 $
K15M 282015Z AUTO 03007KT 10SM CLR 32/13 A3013 RMK AO2 T03170129 $
K15M 281955Z AUTO 03006KT 10SM CLR 31/12 A3014 RMK AO2 T03120124 $
K15M 281935Z AUTO 11007KT 9SM CLR 31/12 A3014 RMK AO2 T03090119 $
K15M 281915Z AUTO VRB04KT 10SM CLR 31/12 A3015 RMK AO2 T03050120 $
K15M 281855Z AUTO 10007KT 050V130 10SM CLR 30/12 A3015 RMK AO2 T03050121 $
K15M 281835Z AUTO 06009KT 030V110 10SM CLR 30/12 A3017 RMK AO2 T03010124 $
K15M 281815Z AUTO 01008KT 10SM CLR 30/13 A3017 RMK AO2 T03010129 $
K15M 281755Z AUTO 06005KT 10SM CLR 30/13 A3017 RMK AO2 T02960135 $
K15M 281735Z AUTO 03006KT 9SM CLR 29/13 A3018 RMK AO2 T02930130 $
K15M 281715Z AUTO 04006KT 10SM CLR 29/13 A3018 RMK AO2 T02870133 $
K15M 281655Z AUTO VRB05KT 10SM CLR 28/14 A3019 RMK AO2 T02840138 $
K15M 281635Z AUTO 07008KT 10SM SCT150 28/14 A3019 RMK AO2 T02790137 $
K15M 281615Z AUTO 06007KT 10SM OVC150 27/13 A3019 RMK AO2 T02730134 $
K15M 281555Z AUTO 07008KT 10SM OVC150 27/13 A3020 RMK AO2 T02670132 $
K15M 281535Z AUTO 09007KT 10SM OVC150 26/13 A3020 RMK AO2 T02620134 $
K15M 281515Z AUTO 06006KT 10SM OVC150 26/13 A3019 RMK AO2 T02580129 $
K15M 281455Z AUTO 07006KT 10SM OVC150 25/13 A3019 RMK AO2 T02510134 $
K15M 281435Z AUTO 06006KT 9SM OVC150 24/13 A3020 RMK AO2 T02420134 $
K15M 281415Z AUTO 06007KT 9SM OVC140 24/13 A3020 RMK AO2 T02360131 $
K15M 281355Z AUTO 07005KT 10SM OVC140 24/13 A3019 RMK AO2 T02350131 $
K15M 281335Z AUTO 07007KT 9SM OVC140 23/13 A3019 RMK AO2 T02310126 $
K15M 281315Z AUTO 08007KT 10SM BKN140 23/13 A3019 RMK AO2 T02320128 $
K15M 281255Z AUTO 08007KT 10SM CLR 23/13 A3019 RMK AO2 T02260126 $
K15M 281235Z AUTO 09005KT 9SM CLR 22/13 A3018 RMK AO2 T02200126 $
K15M 281215Z AUTO 07005KT 10SM CLR 22/12 A3018 RMK AO2 T02160125 $
K15M 281155Z AUTO 05005KT 10SM CLR 21/13 A3018 RMK AO2 T02090126 $
K15M 281135Z AUTO 05005KT 10SM CLR 20/13 A3017 RMK AO2 T02030125 $
K15M 281115Z AUTO 06004KT 10SM CLR 20/13 A3017 RMK AO2 T02020126 $
K15M 281055Z AUTO 05004KT 10SM FEW300 20/13 A3016 RMK AO2 T01990126 $
K15M 281035Z AUTO 05004KT 9SM FEW300 20/13 A3016 RMK AO2 T01990126 $
K15M 281015Z AUTO 05004KT 10SM CLR 20/13 A3015 RMK AO2 T01970126 $
K15M 280955Z AUTO 00000KT 10SM CLR 20/13 A3015 RMK AO2 T02010125 $
K15M 280935Z AUTO 03003KT 10SM CLR 20/13 A3015 RMK AO2 T01990126 $
K15M 280915Z AUTO 03003KT 10SM CLR 20/13 A3015 RMK AO2 T02030126 $
K15M 280855Z AUTO 02003KT 10SM CLR 20/13 A3015 RMK AO2 T02040126 $
K15M 280835Z AUTO 02004KT 10SM FEW310 21/12 A3014 RMK AO2 T02090124 $
K15M 280815Z AUTO 02005KT 5SM HZ FEW160 SCT310 21/13 A3014 RMK AO2 T02100125 $
K15M 280755Z AUTO 04006KT 10SM OVC160 21/13 A3014 RMK AO2 T02110126 $
K15M 280735Z AUTO 02005KT 10SM OVC150 22/13 A3014 RMK AO2 T02160126 $
K15M 280715Z AUTO 04006KT 10SM OVC150 22/13 A3014 RMK AO2 T02150128 $
K15M 280615Z AUTO 02007KT 10SM CLR 21/13 A3015 RMK AO2 T02130133 $
K15M 280555Z AUTO 01007KT 10SM FEW340 21/13 A3015 RMK AO2 T02150134 $
K15M 280535Z AUTO 01008KT 10SM FEW340 22/14 A3016 RMK AO2 T02170136 $
K15M 280515Z AUTO 01007KT 10SM CLR 22/14 A3017 RMK AO2 T02180139 $
K15M 280455Z AUTO 36006KT 10SM FEW330 22/14 A3017 RMK AO2 T02210142 $
K15M 280435Z AUTO 36007KT 10SM CLR 22/15 A3017 RMK AO2 T02220145 $
K15M 280415Z AUTO 36004KT 10SM CLR 22/15 A3016 RMK AO2 T02240146 $
K15M 280355Z AUTO 36006KT 10SM FEW330 23/15 A3016 RMK AO2 T02270145 $
K15M 280335Z AUTO 02003KT 10SM CLR 23/15 A3016 RMK AO2 T02300146 $
K15M 280315Z AUTO 36004KT 10SM CLR 23/14 A3016 RMK AO2 T02300144 $
K15M 280255Z AUTO 01005KT 10SM CLR 24/14 A3015 RMK AO2 T02360144 $
K15M 280235Z AUTO 35003KT 10SM CLR 23/15 A3015 RMK AO2 T02350145 $
K15M 280215Z AUTO 35003KT 10SM CLR 24/14 A3014 RMK AO2 T02410142 $
K15M 280155Z AUTO VRB03KT 10SM CLR 24/14 A3013 RMK AO2 T02420142 $
K15M 280135Z AUTO 00000KT 10SM CLR 24/15 A3013 RMK AO2 T02400147 $
K15M 280115Z AUTO 35003KT 10SM CLR 25/13 A3012 RMK AO2 T02540133 $
K15M 280055Z AUTO 36004KT 10SM CLR 26/13 A3012 RMK AO2 T02650130 $
K15M 280035Z AUTO 01005KT 10SM CLR 27/13 A3012 RMK AO2 T02730126 $
K15M 280015Z AUTO 36007KT 10SM CLR 28/12 A3012 RMK AO2 T02780122 $
K15M 272355Z AUTO 36008KT 10SM CLR 28/13 A3012 RMK AO2 T02830129 $
K15M 272335Z AUTO 01007KT 10SM FEW370 28/13 A3012 RMK AO2 T02840131 $
K15M 272315Z AUTO 02007KT 10SM FEW370 29/13 A3011 RMK AO2 T02870131 $
K15M 272255Z AUTO 36006KT 10SM CLR 30/13 A3011 RMK AO2 T02980135 $
K15M 272235Z AUTO VRB03KT 10SM CLR 30/14 A3010 RMK AO2 T02980136 $
K15M 272215Z AUTO VRB04KT 9SM CLR 29/15 A3010 RMK AO2 T02930149 $
K15M 272155Z AUTO 01004KT 10SM CLR 31/12 A3010 RMK AO2 T03060116 $
K15M 272135Z AUTO 01010KT 9SM CLR 30/13 A3010 RMK AO2 T03020125 $
K15M 272115Z AUTO VRB04KT 9SM FEW330 31/13 A3010 RMK AO2 T03100127 $
K15M 272055Z AUTO 33003G17KT 050V030 10SM FEW330 31/15 A3011 RMK AO2 T03070150 $
K15M 272035Z AUTO VRB03KT 10SM CLR 31/17 A3012 RMK AO2 T03070166 $
K15M 272015Z AUTO 01011G15KT 10SM CLR 30/15 A3012 RMK AO2 T03040154 $
K15M 271955Z AUTO 36006KT 10SM CLR 30/17 A3013 RMK AO2 T03020168 $
K15M 271935Z AUTO 36009KT 10SM CLR 31/17 A3014 RMK AO2 T03070173 $
K15M 271915Z AUTO VRB04KT 10SM FEW046 31/18 A3014 RMK AO2 T03070179 $
K15M 271855Z AUTO VRB06KT 10SM CLR 30/18 A3015 RMK AO2 T03000178 $
K15M 271835Z AUTO 35003G16KT 280V070 10SM FEW045 30/18 A3015 RMK AO2 T03020178 $
K15M 260415Z AUTO 00000KT 10SM CLR 26/20 A3007 RMK AO2 T02550202 $
K15M 260355Z AUTO 00000KT 10SM CLR 26/20 A3008 RMK AO2 T02580198 $
K15M 260335Z AUTO 00000KT 10SM CLR 26/20 A3008 RMK AO2 T02650197 $
K15M 260315Z AUTO 00000KT 10SM CLR 27/19 A3007 RMK AO2 T02690186 $
K15M 260255Z AUTO 16003KT 10SM CLR 27/19 A3006 RMK AO2 T02650188 $
K15M 260235Z AUTO 00000KT 10SM CLR 27/19 A3004 RMK AO2 T02650192 $
K15M 260215Z AUTO 00000KT 10SM CLR 27/19 A3003 RMK AO2 T02730189 $
K15M 260155Z AUTO 00000KT 10SM CLR 28/20 A3003 RMK AO2 T02770197 $
K15M 260135Z AUTO 00000KT 10SM CLR 28/19 A3003 RMK AO2 T02850187 $
K15M 260115Z AUTO 16004KT 10SM CLR 32/16 A3003 RMK AO2 T03190163 $
K15M 260055Z AUTO 16004KT 9SM CLR 32/17 A3002 RMK AO2 T03240166 $
K15M 260035Z AUTO 16004KT 10SM CLR 33/17 A3002 RMK AO2 T03260174 $
K15M 260015Z AUTO 14003KT 10SM CLR 33/17 A3001 RMK AO2 T03320174 $
K15M 252355Z AUTO 14003KT 10SM CLR 34/17 A3000 RMK AO2 T03360172 $
K15M 252335Z AUTO 13004KT 10SM CLR 34/17 A3000 RMK AO2 T03400167 $
K15M 252315Z AUTO VRB04KT 10SM CLR 35/16 A3000 RMK AO2 T03480164 $
K15M 252255Z AUTO 12005KT 10SM CLR 35/17 A2999 RMK AO2 T03530167 $
K15M 252235Z AUTO 15005KT 10SM CLR 35/17 A3000 RMK AO2 T03500169 $
No TAF found for K15M